Time;durP1;ratioP1;P1;durP2;ratioP2;P2;SDS_P1;SDS_P2;PMS_P1;PMS_P2;Temp;Humidity;BMP_temperature;BMP_pressure;BME280_temperature;BME280_humidity;BME280_pressure;Samples;Min_cycle;Max_cycle;Signal;HPM_P1;HPM_P2
2022/07/03 00:00:33;;;;;;;2.60;0.75;;;;;;;15.98;65.03;100960.78;5097824;28;20036;-70
2022/07/03 00:02:58;;;;;;;4.63;1.15;;;;;;;15.97;65.32;100964.75;5096521;28;20495;-70
2022/07/03 00:05:24;;;;;;;3.20;1.05;;;;;;;15.92;65.32;100961.25;5097693;28;20483;-70
2022/07/03 00:07:49;;;;;;;1.92;0.73;;;;;;;15.92;64.95;100966.84;5097903;28;20471;-70
2022/07/03 00:10:15;;;;;;;3.42;1.10;;;;;;;15.89;65.01;100961.88;5096485;28;20081;-70
2022/07/03 00:12:40;;;;;;;3.92;0.98;;;;;;;15.84;65.33;100966.47;5097595;28;20035;-70
2022/07/03 00:15:06;;;;;;;5.93;1.55;;;;;;;15.78;65.54;100973.34;5097404;28;20418;-70
2022/07/03 00:17:32;;;;;;;3.40;0.93;;;;;;;15.76;65.33;100970.03;5097858;28;20373;-70
2022/07/03 00:19:57;;;;;;;2.70;1.10;;;;;;;15.75;65.66;100970.34;5097425;28;20089;-70
2022/07/03 00:22:26;;;;;;;2.53;0.77;;;;;;;15.69;65.37;100975.25;5097314;28;20380;-70
2022/07/03 00:24:58;;;;;;;3.08;1.00;;;;;;;15.68;66.01;100967.97;5096474;28;20455;-70
2022/07/03 00:27:24;;;;;;;2.88;1.00;;;;;;;15.68;66.10;100967.97;5096005;28;20032;-70
2022/07/03 00:29:49;;;;;;;2.30;1.00;;;;;;;15.62;66.09;100964.44;5061306;28;20033;-69
2022/07/03 00:32:19;;;;;;;3.38;1.10;;;;;;;15.61;66.21;100973.19;5079172;28;20028;-69
2022/07/03 00:34:45;;;;;;;2.25;1.00;;;;;;;15.57;66.48;100956.19;5095460;28;20100;-70
2022/07/03 00:37:10;;;;;;;2.17;1.00;;;;;;;15.52;66.23;100961.91;5097183;28;20028;-69
2022/07/03 00:39:38;;;;;;;2.38;1.00;;;;;;;15.51;66.50;100956.63;5078908;28;20028;-70
2022/07/03 00:42:04;;;;;;;3.72;1.25;;;;;;;15.48;66.39;100962.84;5095901;28;20108;-70
2022/07/03 00:44:30;;;;;;;3.40;1.02;;;;;;;15.41;66.45;100963.31;5095700;28;20612;-70
2022/07/03 00:46:55;;;;;;;3.40;1.15;;;;;;;15.39;66.36;100972.00;5097063;28;20107;-70
2022/07/03 00:49:22;;;;;;;4.20;1.25;;;;;;;15.38;67.02;100978.75;5094618;28;20049;-70
2022/07/03 00:51:51;;;;;;;3.38;1.20;;;;;;;15.34;67.30;100963.72;5096848;28;20031;-70
2022/07/03 00:54:17;;;;;;;2.53;0.90;;;;;;;15.28;67.34;100973.38;5093925;28;20052;-70
2022/07/03 00:56:42;;;;;;;3.53;1.10;;;;;;;15.29;66.76;100975.03;5094203;28;20024;-70
2022/07/03 00:59:08;;;;;;;2.97;1.10;;;;;;;15.24;67.40;100972.38;5077519;28;20029;-70
2022/07/03 01:01:35;;;;;;;3.22;0.90;;;;;;;15.19;67.33;100978.88;5096894;28;20057;-70
2022/07/03 01:04:23;;;;;;;2.33;1.20;;;;;;;15.15;67.41;100977.84;5096544;28;20043;-70
2022/07/03 01:06:55;;;;;;;4.20;1.33;;;;;;;15.11;67.33;100970.41;5095507;28;20032;-70
2022/07/03 01:09:28;;;;;;;3.88;1.10;;;;;;;15.07;67.36;100972.16;5095480;28;20028;-70
2022/07/03 01:11:58;;;;;;;2.42;0.93;;;;;;;15.08;67.88;100968.25;5044032;28;20021;-70
2022/07/03 01:14:44;;;;;;;3.25;1.17;;;;;;;15.03;68.26;100979.53;5129111;27;20059;-69
2022/07/03 01:17:26;;;;;;;4.68;0.88;;;;;;;14.97;67.90;100976.84;5112227;28;20035;-70
2022/07/03 01:19:56;;;;;;;2.15;1.00;;;;;;;14.95;67.89;100967.09;5102385;28;20024;-70
2022/07/03 01:22:43;;;;;;;2.95;1.05;;;;;;;14.90;67.75;100965.25;5078604;28;20027;-70
2022/07/03 01:25:43;;;;;;;3.15;1.38;;;;;;;14.89;67.94;100969.19;5078568;28;20036;-70
2022/07/03 01:28:16;;;;;;;5.07;1.27;;;;;;;14.83;67.54;100966.81;5095193;28;20028;-70
2022/07/03 01:30:43;;;;;;;;;;;;;;;14.80;67.87;100965.47;5096408;28;20031;-70
2022/07/03 01:33:11;;;;;;;3.42;1.30;;;;;;;14.74;68.32;100961.97;5093788;28;19923;-70
2022/07/03 01:35:36;;;;;;;2.58;1.10;;;;;;;14.72;68.62;100963.41;5096510;28;20028;-70
2022/07/03 01:38:12;;;;;;;3.08;1.05;;;;;;;14.68;68.59;100966.00;5096041;28;20035;-70
2022/07/03 01:40:39;;;;;;;4.65;1.02;;;;;;;14.67;68.39;100960.72;5096181;28;20028;-69
2022/07/03 01:43:08;;;;;;;5.38;1.30;;;;;;;14.62;68.65;100969.19;5094994;28;20028;-69
2022/07/03 01:45:37;;;;;;;3.28;1.15;;;;;;;14.60;68.93;100968.66;5096097;28;20107;-70
2022/07/03 01:48:03;;;;;;;4.38;1.10;;;;;;;14.58;68.83;100965.38;5090307;28;20021;-70
2022/07/03 01:50:29;;;;;;;2.55;1.00;;;;;;;14.52;68.62;100967.44;5107850;28;20035;-69
2022/07/03 01:52:55;;;;;;;3.97;1.20;;;;;;;14.53;69.23;100971.88;5076591;28;20032;-70
2022/07/03 01:55:20;;;;;;;2.00;1.00;;;;;;;14.48;68.92;100978.34;5095003;28;20077;-70
2022/07/03 01:57:47;;;;;;;4.20;1.13;;;;;;;14.45;69.01;100966.97;5077843;28;20035;-70
2022/07/03 02:00:13;;;;;;;3.55;1.10;;;;;;;14.42;69.20;100971.22;5094631;28;20036;-69
2022/07/03 02:02:46;;;;;;;2.30;1.00;;;;;;;14.40;69.53;100967.94;5094901;28;20110;-70
2022/07/03 02:05:44;;;;;;;2.40;1.05;;;;;;;14.37;69.56;100976.06;5102546;27;20031;-70
2022/07/03 02:08:40;;;;;;;4.75;1.15;;;;;;;14.36;69.72;100977.22;5057567;28;20412;-70
2022/07/03 02:11:19;;;;;;;1.60;1.10;;;;;;;14.33;69.73;100973.06;5090796;28;20388;-70
2022/07/03 02:13:55;;;;;;;3.83;1.23;;;;;;;14.30;70.08;100979.28;5098734;28;20138;-70
2022/07/03 02:16:22;;;;;;;2.97;0.80;;;;;;;14.30;70.04;100973.69;5098796;28;20035;-69
2022/07/03 02:19:02;;;;;;;2.53;0.90;;;;;;;14.27;70.42;100979.91;5098489;28;20514;-70
2022/07/03 02:21:28;;;;;;;3.28;0.80;;;;;;;14.26;70.31;100972.63;5099602;28;20032;-70
2022/07/03 02:24:18;;;;;;;3.30;0.93;;;;;;;14.21;69.76;100968.00;5098598;28;20035;-70
2022/07/03 02:26:53;;;;;;;2.03;1.00;;;;;;;14.19;70.36;100967.47;5106243;28;20456;-70
2022/07/03 02:29:18;;;;;;;3.58;0.90;;;;;;;14.18;70.58;100964.97;5089467;28;20024;-70
2022/07/03 02:31:45;;;;;;;3.10;1.10;;;;;;;14.16;70.47;100964.47;5081433;28;20035;-70
2022/07/03 02:34:17;;;;;;;3.22;1.27;;;;;;;14.13;70.35;100965.09;5099472;28;20099;-70
2022/07/03 02:36:48;;;;;;;3.90;0.90;;;;;;;14.09;70.11;100970.44;5099606;28;20034;-70
2022/07/03 02:39:19;;;;;;;4.13;1.08;;;;;;;14.07;70.54;100967.97;5092722;28;20085;-70
2022/07/03 02:41:54;;;;;;;2.70;0.70;;;;;;;14.06;70.77;100973.84;5097656;28;20068;-70
2022/07/03 02:44:25;;;;;;;2.97;1.05;;;;;;;14.02;70.45;100967.22;5079595;28;20084;-70
2022/07/03 02:47:01;;;;;;;3.22;1.00;;;;;;;14.01;70.14;100971.97;5099370;28;20040;-70
2022/07/03 02:49:48;;;;;;;2.42;0.93;;;;;;;13.97;70.23;100973.72;5093361;28;20047;-70
2022/07/03 02:52:36;;;;;;;5.97;0.90;;;;;;;13.92;70.45;100973.78;5107815;27;20023;-70
2022/07/03 02:55:14;;;;;;;5.03;0.90;;;;;;;13.91;70.49;100966.56;5097748;28;20048;-70
2022/07/03 02:57:40;;;;;;;3.05;1.00;;;;;;;13.91;70.64;100971.31;5091524;28;20391;-70
2022/07/03 03:00:15;;;;;;;4.03;1.08;;;;;;;13.86;71.07;100969.44;5086447;28;20033;-70
2022/07/03 03:02:49;;;;;;;3.30;0.93;;;;;;;13.83;70.65;100970.06;5096007;28;20372;-70
2022/07/03 03:05:39;;;;;;;4.40;0.90;;;;;;;13.78;70.87;100973.75;5098903;28;20039;-70
2022/07/03 03:08:19;;;;;;;3.65;0.90;;;;;;;13.75;70.47;100976.31;5092160;28;20103;-70
2022/07/03 03:10:44;;;;;;;3.97;0.93;;;;;;;13.72;70.78;100966.59;5098938;28;20063;-70
2022/07/03 03:13:11;;;;;;;3.20;0.88;;;;;;;13.71;71.01;100973.31;5098852;28;20035;-70
2022/07/03 03:15:38;;;;;;;3.35;1.10;;;;;;;13.67;71.10;100963.06;5096719;28;20480;-70
2022/07/03 03:18:08;;;;;;;4.43;1.13;;;;;;;13.65;70.76;100963.38;5097343;28;20052;-70
2022/07/03 03:20:35;;;;;;;2.38;0.80;;;;;;;13.60;70.74;100957.88;5098851;28;20028;-70
2022/07/03 03:23:38;;;;;;;3.75;1.23;;;;;;;13.60;70.90;100967.06;5098325;28;20024;-70
2022/07/03 03:26:03;;;;;;;3.72;1.45;;;;;;;13.55;70.87;100963.53;5090182;28;20032;-70
2022/07/03 03:28:29;;;;;;;4.13;1.15;;;;;;;13.52;70.75;100959.38;5098484;28;20028;-70
2022/07/03 03:30:55;;;;;;;1.33;0.90;;;;;;;13.49;70.64;100967.53;5097070;28;20096;-70
2022/07/03 03:33:20;;;;;;;3.80;1.05;;;;;;;13.46;70.92;100970.94;5094774;28;20031;-70
2022/07/03 03:35:46;;;;;;;1.95;1.10;;;;;;;13.44;71.18;100968.44;5097128;28;20039;-70
2022/07/03 03:38:11;;;;;;;2.42;0.80;;;;;;;13.39;70.89;100971.28;5063287;28;20028;-70
2022/07/03 03:40:37;;;;;;;1.30;1.00;;;;;;;13.39;70.89;100974.09;5098336;28;20091;-70
2022/07/03 03:43:03;;;;;;;1.98;0.85;;;;;;;13.36;71.14;100980.28;5098283;28;20024;-70
2022/07/03 03:45:28;;;;;;;1.70;0.80;;;;;;;13.30;70.86;100981.47;5098115;28;20058;-70
2022/07/03 03:47:53;;;;;;;2.88;0.90;;;;;;;13.27;71.08;100984.88;5097540;28;20081;-70
2022/07/03 03:50:19;;;;;;;2.08;0.90;;;;;;;13.24;71.21;100982.66;5096953;28;20032;-70
2022/07/03 03:52:44;;;;;;;2.97;1.02;;;;;;;13.21;71.05;100986.88;5093758;28;20032;-70
2022/07/03 03:55:10;;;;;;;1.70;0.90;;;;;;;13.17;71.08;100975.47;5096584;28;20381;-70
2022/07/03 03:57:36;;;;;;;3.40;0.80;;;;;;;13.15;70.95;100976.94;5077399;28;20040;-70
2022/07/03 04:00:01;;;;;;;3.03;1.02;;;;;;;13.14;71.47;100975.25;5096740;28;20036;-70
2022/07/03 04:02:27;;;;;;;1.95;0.77;;;;;;;13.10;71.56;100971.41;5097886;28;20058;-70
2022/07/03 04:04:52;;;;;;;1.58;0.70;;;;;;;13.06;71.27;100976.75;5097706;28;20081;-70
2022/07/03 04:07:18;;;;;;;1.73;0.63;;;;;;;13.02;71.40;100978.47;5079668;28;20396;-70
2022/07/03 04:09:44;;;;;;;3.67;1.15;;;;;;;13.01;71.31;100971.25;5097773;28;20042;-70
2022/07/03 04:12:10;;;;;;;1.95;1.00;;;;;;;12.99;71.41;100970.72;5096393;28;20032;-70
2022/07/03 04:14:35;;;;;;;1.17;0.70;;;;;;;12.92;71.48;100979.44;5097427;28;20047;-70
2022/07/03 04:17:01;;;;;;;1.27;0.80;;;;;;;12.91;71.33;100979.75;5097637;28;20032;-70
2022/07/03 04:19:27;;;;;;;2.35;0.90;;;;;;;12.90;71.08;100978.91;5097227;28;20031;-70
2022/07/03 04:21:52;;;;;;;3.13;1.25;;;;;;;12.89;71.74;100977.25;5097370;28;20031;-70
2022/07/03 04:24:18;;;;;;;2.03;0.68;;;;;;;12.87;71.58;100985.09;5097666;28;20430;-70
2022/07/03 04:26:43;;;;;;;2.05;0.63;;;;;;;12.85;72.01;100983.72;5095883;28;20140;-70
2022/07/03 04:29:09;;;;;;;2.22;0.80;;;;;;;12.86;71.99;100993.75;5096595;28;20031;-70
2022/07/03 04:31:34;;;;;;;2.63;0.60;;;;;;;12.84;72.60;100985.69;5097226;28;20028;-70
2022/07/03 04:34:00;;;;;;;2.05;0.68;;;;;;;12.84;72.98;100988.47;5097364;28;20038;-70
2022/07/03 04:36:25;;;;;;;3.63;1.25;;;;;;;12.87;73.31;100989.81;5097190;28;20035;-70
2022/07/03 04:38:51;;;;;;;2.92;0.82;;;;;;;12.90;73.96;100989.25;5097183;28;20047;-70
2022/07/03 04:41:16;;;;;;;1.88;1.00;;;;;;;12.97;74.12;100989.69;5097206;28;20042;-70
2022/07/03 04:43:41;;;;;;;4.90;1.15;;;;;;;13.01;75.22;100999.13;5096840;28;20027;-72
2022/07/03 04:46:07;;;;;;;3.22;1.00;;;;;;;13.10;75.54;100994.56;5095815;28;20028;-72
2022/07/03 04:48:33;;;;;;;1.70;1.05;;;;;;;13.18;76.01;100998.63;5078788;28;20031;-72
2022/07/03 04:50:58;;;;;;;2.90;0.85;;;;;;;13.26;76.79;100989.63;5078919;28;20411;-72
2022/07/03 04:53:24;;;;;;;2.70;0.85;;;;;;;13.37;78.83;100999.50;5096341;28;20086;-72
2022/07/03 04:55:49;;;;;;;4.72;1.08;;;;;;;13.49;81.72;101001.03;5095411;28;20106;-72
2022/07/03 04:58:15;;;;;;;2.95;0.90;;;;;;;13.61;81.13;101004.19;5097071;28;20438;-72
2022/07/03 05:00:40;;;;;;;2.40;0.85;;;;;;;13.73;81.14;101004.53;5096438;28;20050;-72
2022/07/03 05:03:06;;;;;;;3.80;0.90;;;;;;;13.87;78.68;101004.59;5095447;28;20515;-70
2022/07/03 05:05:32;;;;;;;1.65;0.73;;;;;;;14.01;78.78;101007.44;5078495;28;20134;-70
2022/07/03 05:07:57;;;;;;;3.15;0.80;;;;;;;14.14;78.10;101006.66;5096773;28;20028;-70
2022/07/03 05:10:23;;;;;;;3.72;0.82;;;;;;;14.29;74.54;101012.00;5096543;28;20036;-70
2022/07/03 05:12:48;;;;;;;2.85;0.60;;;;;;;14.45;72.69;101008.91;5095663;28;20024;-70
2022/07/03 05:15:14;;;;;;;3.60;0.90;;;;;;;14.62;72.51;101009.16;5096095;28;20031;-70
2022/07/03 05:17:39;;;;;;;3.70;0.80;;;;;;;14.78;71.30;101006.88;5078256;28;20036;-70
2022/07/03 05:20:23;;;;;;;2.78;1.08;;;;;;;14.92;71.07;101006.88;5096455;28;20039;-70
2022/07/03 05:22:53;;;;;;;1.77;0.63;;;;;;;15.10;70.74;101002.31;5096350;28;20395;-70
2022/07/03 05:25:18;;;;;;;3.22;0.65;;;;;;;15.26;70.05;101012.03;5095288;28;20077;-70
2022/07/03 05:27:44;;;;;;;3.15;0.73;;;;;;;15.42;69.69;101018.94;5096394;28;20036;-70
2022/07/03 05:30:10;;;;;;;3.78;0.88;;;;;;;15.59;69.08;101015.47;5096122;28;20028;-70
2022/07/03 05:32:35;;;;;;;4.07;1.13;;;;;;;15.74;68.53;101021.88;5095137;28;20024;-70
2022/07/03 05:35:01;;;;;;;5.35;1.13;;;;;;;15.90;68.08;101025.97;5094129;28;20082;-70
2022/07/03 05:37:26;;;;;;;3.92;0.80;;;;;;;16.07;67.97;101025.28;5096205;28;20492;-70
2022/07/03 05:39:52;;;;;;;2.75;0.88;;;;;;;16.22;67.49;101030.50;5096040;28;20028;-70
2022/07/03 05:42:18;;;;;;;3.40;0.70;;;;;;;16.37;66.99;101025.66;5096383;28;20039;-70
2022/07/03 05:44:43;;;;;;;4.13;0.73;;;;;;;16.53;66.85;101029.69;5094695;28;20040;-70
2022/07/03 05:47:09;;;;;;;4.60;0.77;;;;;;;16.69;66.00;101033.75;5096254;28;20035;-70
2022/07/03 05:49:34;;;;;;;2.78;0.70;;;;;;;16.87;65.71;101036.66;5090510;28;20047;-70
2022/07/03 05:51:59;;;;;;;2.00;0.60;;;;;;;17.05;65.23;101040.34;5096143;28;20028;-70
2022/07/03 05:54:25;;;;;;;3.47;0.82;;;;;;;17.22;64.46;101042.38;5093517;28;20656;-70
2022/07/03 05:56:50;;;;;;;3.05;1.02;;;;;;;17.38;63.98;101046.38;5090154;28;20036;-70
2022/07/03 05:59:16;;;;;;;1.92;0.80;;;;;;;17.55;63.41;101035.19;5077926;28;20035;-70
2022/07/03 06:01:41;;;;;;;3.08;0.93;;;;;;;17.73;63.10;101038.00;5096052;28;20024;-70
2022/07/03 06:04:07;;;;;;;2.85;0.70;;;;;;;17.89;62.81;101032.75;5095925;28;20031;-70
2022/07/03 06:06:32;;;;;;;4.72;0.63;;;;;;;18.04;62.52;101027.44;5095960;28;20035;-70
2022/07/03 06:08:58;;;;;;;2.78;0.50;;;;;;;18.21;62.11;101031.41;5096035;28;20028;-70
2022/07/03 06:11:23;;;;;;;3.63;0.63;;;;;;;18.40;61.07;101026.22;5095736;28;20039;-70
2022/07/03 06:13:49;;;;;;;3.13;0.75;;;;;;;18.58;61.23;101031.78;5095535;28;20043;-70
2022/07/03 06:16:14;;;;;;;4.30;0.90;;;;;;;18.71;60.90;101030.75;5096000;28;20028;-71
2022/07/03 06:18:40;;;;;;;3.78;0.73;;;;;;;18.87;60.58;101020.63;5095639;28;20039;-70
2022/07/03 06:21:08;;;;;;;4.35;0.65;;;;;;;19.03;60.09;101020.06;5093325;28;20063;-70
2022/07/03 06:23:34;;;;;;;4.45;0.80;;;;;;;19.15;60.22;101023.81;5093378;28;20028;-71
2022/07/03 06:26:00;;;;;;;3.30;0.80;;;;;;;19.30;59.61;101025.19;5095768;28;20035;-70
2022/07/03 06:28:25;;;;;;;2.38;0.68;;;;;;;19.45;59.38;101032.25;5094490;28;20039;-70
2022/07/03 06:30:51;;;;;;;3.75;0.52;;;;;;;19.60;58.87;101025.19;5095372;28;20032;-70
2022/07/03 06:33:17;;;;;;;3.50;0.70;;;;;;;19.72;58.56;101027.25;5095396;28;20032;-71
2022/07/03 06:35:43;;;;;;;4.57;0.63;;;;;;;19.86;58.40;101019.34;5094320;28;20020;-71
2022/07/03 06:38:09;;;;;;;4.50;0.73;;;;;;;20.03;57.80;101024.84;5092736;28;20073;-71
2022/07/03 06:40:34;;;;;;;5.15;0.60;;;;;;;20.21;57.31;101031.13;5095158;28;20031;-71
2022/07/03 06:42:59;;;;;;;3.85;0.75;;;;;;;20.31;57.69;101027.91;5095580;28;20030;-71
2022/07/03 06:45:25;;;;;;;2.65;0.63;;;;;;;20.45;57.10;101035.22;5095683;28;20032;-71
2022/07/03 06:47:51;;;;;;;4.72;0.80;;;;;;;20.56;56.83;101042.09;5095022;28;20032;-71
2022/07/03 06:50:18;;;;;;;5.00;0.88;;;;;;;20.66;56.58;101041.63;5057815;28;20029;-71
2022/07/03 06:52:44;;;;;;;4.95;0.82;;;;;;;20.73;56.90;101041.91;5098301;28;20036;-71
2022/07/03 06:55:09;;;;;;;5.50;0.77;;;;;;;20.84;56.46;101045.09;5098970;28;20093;-71
2022/07/03 06:57:35;;;;;;;4.47;0.70;;;;;;;20.92;55.83;101044.16;5098817;28;20547;-71
2022/07/03 07:00:00;;;;;;;5.32;0.77;;;;;;;21.05;55.72;101047.81;5099064;28;20032;-71
2022/07/03 07:02:26;;;;;;;3.97;0.80;;;;;;;21.17;55.27;101049.81;5099043;28;20598;-71
2022/07/03 07:04:51;;;;;;;5.40;0.63;;;;;;;21.17;54.86;101050.66;5098845;28;20043;-71
2022/07/03 07:07:17;;;;;;;3.97;0.88;;;;;;;21.23;54.33;101051.22;5098649;28;20036;-70
2022/07/03 07:09:42;;;;;;;4.65;0.80;;;;;;;21.25;54.06;101048.03;5097774;28;20032;-67
2022/07/03 07:12:08;;;;;;;3.45;0.75;;;;;;;21.33;53.91;101052.75;5098966;28;20043;-68
2022/07/03 07:14:34;;;;;;;5.18;1.08;;;;;;;21.37;53.72;101042.44;5091731;28;20036;-68
2022/07/03 07:16:59;;;;;;;5.93;0.80;;;;;;;21.43;53.38;101043.84;5080696;28;20054;-67
2022/07/03 07:19:25;;;;;;;4.75;0.75;;;;;;;21.51;52.77;101048.53;5097502;28;20035;-67
2022/07/03 07:21:50;;;;;;;5.40;0.65;;;;;;;21.63;52.88;101048.50;5080118;28;20089;-67
2022/07/03 07:24:16;;;;;;;7.10;1.08;;;;;;;21.76;52.62;101045.66;5077396;28;20078;-67
2022/07/03 07:26:41;;;;;;;4.38;0.73;;;;;;;21.91;52.26;101056.22;5096833;28;20034;-71
2022/07/03 07:29:07;;;;;;;4.75;0.95;;;;;;;21.88;51.74;101054.09;5097057;28;20102;-72
2022/07/03 07:31:32;;;;;;;9.93;1.00;;;;;;;22.00;51.62;101056.88;5097221;28;20226;-71
2022/07/03 07:33:58;;;;;;;6.07;0.90;;;;;;;22.12;51.25;101056.03;5098305;28;20032;-71
2022/07/03 07:36:23;;;;;;;3.25;0.63;;;;;;;22.23;50.73;101057.19;5098223;28;20126;-71
2022/07/03 07:38:49;;;;;;;2.47;0.57;;;;;;;22.25;50.78;101054.81;5097082;28;20058;-71
2022/07/03 07:41:14;;;;;;;4.38;0.75;;;;;;;22.45;50.22;101052.94;5098278;28;20028;-71
2022/07/03 07:43:40;;;;;;;4.65;0.98;;;;;;;22.49;49.73;101050.22;5096849;28;20028;-71
2022/07/03 07:46:05;;;;;;;4.05;1.00;;;;;;;22.55;49.78;101050.78;5098257;28;20049;-71
2022/07/03 07:48:33;;;;;;;4.65;0.85;;;;;;;22.60;49.08;101045.69;5090289;28;20426;-71
2022/07/03 07:50:59;;;;;;;3.65;0.68;;;;;;;22.74;49.01;101048.06;5098125;28;20039;-71
2022/07/03 07:53:24;;;;;;;4.63;0.85;;;;;;;22.80;48.63;101055.09;5097170;28;20048;-71
2022/07/03 07:55:50;;;;;;;5.50;0.80;;;;;;;22.99;48.66;101045.09;5096259;28;20032;-71
2022/07/03 07:58:15;;;;;;;4.82;0.80;;;;;;;23.06;48.67;101048.91;5104619;28;20039;-71
2022/07/03 08:05:35;;;;;;;4.13;0.68;;;;;;;23.17;48.06;101050.00;5097735;28;20035;-71
2022/07/03 08:06:11;;;;;;;5.22;0.90;;;;;;;23.50;47.59;101062.13;5094497;28;20120;-70
2022/07/03 08:08:36;;;;;;;3.85;0.98;;;;;;;23.59;47.22;101043.69;5097543;28;20040;-70
2022/07/03 08:11:01;;;;;;;7.22;1.13;;;;;;;23.74;46.84;101056.25;5088922;28;20081;-68
2022/07/03 08:13:27;;;;;;;5.07;0.80;;;;;;;23.77;45.68;101035.66;5097577;28;20485;-67
2022/07/03 08:15:52;;;;;;;5.07;0.82;;;;;;;23.91;45.31;101052.16;5094911;28;20130;-68
2022/07/03 08:18:18;;;;;;;6.70;0.88;;;;;;;23.89;44.62;101045.22;5060334;28;20055;-68
2022/07/03 08:20:43;;;;;;;3.22;0.50;;;;;;;24.06;43.76;101039.91;5096541;28;20050;-68
2022/07/03 08:23:09;;;;;;;5.80;0.60;;;;;;;24.19;43.94;101034.09;5079306;28;20077;-68
2022/07/03 08:25:34;;;;;;;3.95;0.80;;;;;;;24.28;44.87;101044.00;5096338;28;20032;-67
2022/07/03 08:28:00;;;;;;;4.32;0.60;;;;;;;24.31;43.73;101042.44;5062458;28;20020;-68
2022/07/03 08:30:26;;;;;;;2.70;0.60;;;;;;;24.35;43.80;101036.81;5079026;28;20024;-70
2022/07/03 08:32:53;;;;;;;3.47;0.68;;;;;;;24.52;42.77;101036.41;5076986;28;20020;-67
2022/07/03 08:35:19;;;;;;;6.00;0.70;;;;;;;24.52;43.16;101040.03;5079126;28;20029;-67
2022/07/03 08:37:46;;;;;;;3.80;0.60;;;;;;;24.63;42.88;101039.44;5060634;28;20024;-67
2022/07/03 08:40:15;;;;;;;2.85;0.50;;;;;;;24.77;42.59;101036.00;5079446;28;20036;-67
2022/07/03 08:42:46;;;;;;;4.45;0.80;;;;;;;24.93;42.92;101046.06;5079361;28;20395;-68
2022/07/03 08:45:17;;;;;;;4.25;0.65;;;;;;;25.05;42.49;101039.38;5076080;28;20025;-68
2022/07/03 08:47:43;;;;;;;1.58;0.40;;;;;;;25.11;42.72;101037.03;5077508;28;20032;-67
2022/07/03 08:50:10;;;;;;;1.80;0.30;;;;;;;25.27;41.53;101037.72;5110886;28;20039;-68
2022/07/03 08:52:36;;;;;;;6.18;0.70;;;;;;;25.45;41.87;101038.00;5078753;28;20047;-68
2022/07/03 08:55:03;;;;;;;2.50;0.57;;;;;;;25.51;41.29;101033.59;5074233;28;20508;-67
2022/07/03 08:57:35;;;;;;;2.10;0.38;;;;;;;25.56;41.23;101032.47;5081382;28;20095;-67
2022/07/03 09:00:03;;;;;;;1.98;0.50;;;;;;;25.53;40.83;101033.22;5059499;28;20031;-68
2022/07/03 09:02:30;;;;;;;2.83;0.43;;;;;;;25.45;40.65;101029.47;5095906;28;20434;-67
2022/07/03 09:04:57;;;;;;;5.38;0.52;;;;;;;25.42;41.01;101036.72;5078895;28;20031;-69
2022/07/03 09:07:22;;;;;;;4.65;0.60;;;;;;;25.39;41.18;101036.69;5084146;28;20112;-68
2022/07/03 09:09:48;;;;;;;2.67;0.50;;;;;;;25.42;41.22;101041.59;5109390;28;20031;-68
2022/07/03 09:12:13;;;;;;;5.75;0.60;;;;;;;25.35;41.58;101035.78;5061792;28;20020;-68
2022/07/03 09:14:39;;;;;;;3.33;0.60;;;;;;;25.35;41.31;101033.78;5095231;28;20062;-68
2022/07/03 09:17:06;;;;;;;3.83;0.65;;;;;;;25.41;40.73;101039.97;5075038;28;20029;-67
2022/07/03 09:19:46;;;;;;;3.10;0.68;;;;;;;25.43;40.52;101026.16;5061906;28;20047;-68
2022/07/03 09:22:25;;;;;;;1.95;0.40;;;;;;;25.56;40.59;101036.13;5077106;28;20028;-67
2022/07/03 09:24:52;;;;;;;14.95;1.55;;;;;;;25.63;40.55;101035.41;5095397;28;20027;-68
2022/07/03 09:27:19;;;;;;;6.68;0.98;;;;;;;25.77;40.65;101029.94;5075499;28;20024;-67
2022/07/03 09:30:11;;;;;;;2.90;0.55;;;;;;;25.85;39.19;101031.69;5078071;28;20036;-67
2022/07/03 09:32:36;;;;;;;1.30;0.22;;;;;;;25.87;38.82;101034.13;5091610;28;20044;-67
2022/07/03 09:35:15;;;;;;;1.83;0.32;;;;;;;25.96;39.10;101031.81;5094858;28;20385;-68
2022/07/03 09:37:54;;;;;;;2.05;0.65;;;;;;;26.06;39.79;101030.31;5061219;28;20168;-68
2022/07/03 09:40:21;;;;;;;3.88;0.60;;;;;;;26.20;40.26;101041.06;5113777;27;20159;-68
2022/07/03 09:43:21;;;;;;;4.60;0.65;;;;;;;26.44;40.83;101034.00;5094312;28;20123;-68
2022/07/03 09:45:54;;;;;;;2.90;0.40;;;;;;;26.47;38.81;101034.06;5078238;28;20114;-68
2022/07/03 09:48:26;;;;;;;2.53;0.50;;;;;;;26.67;39.31;101043.25;5106431;28;20396;-68
2022/07/03 09:51:11;;;;;;;2.35;0.40;;;;;;;26.82;39.24;101044.19;5077773;28;20020;-68
2022/07/03 09:53:46;;;;;;;5.00;0.95;;;;;;;26.86;38.90;101045.06;5095307;28;20131;-68
2022/07/03 09:56:12;;;;;;;3.22;0.32;;;;;;;26.85;37.85;101039.75;5060142;28;20036;-68
2022/07/03 09:58:38;;;;;;;3.88;0.45;;;;;;;26.85;38.13;101049.09;5077788;28;20032;-68
2022/07/03 10:01:19;;;;;;;3.05;0.50;;;;;;;26.77;37.39;101052.28;5044726;28;20048;-68
2022/07/03 10:03:47;;;;;;;2.55;0.60;;;;;;;26.69;37.74;101057.09;5095862;28;20028;-68
2022/07/03 10:06:12;;;;;;;4.15;0.52;;;;;;;26.59;38.19;101052.09;5060362;28;20064;-68
2022/07/03 10:08:37;;;;;;;1.48;0.40;;;;;;;26.54;38.50;101055.31;5094983;28;20058;-68
2022/07/03 10:11:03;;;;;;;2.88;0.45;;;;;;;26.52;38.29;101050.84;5095961;28;20028;-68
2022/07/03 10:13:28;;;;;;;2.70;0.30;;;;;;;26.39;38.05;101054.31;5044113;28;20024;-72
2022/07/03 10:15:54;;;;;;;3.78;0.47;;;;;;;26.27;37.41;101052.53;5073063;28;20036;-71
2022/07/03 10:18:20;;;;;;;3.88;0.50;;;;;;;26.39;37.81;101052.28;5095921;28;20066;-71
2022/07/03 10:20:46;;;;;;;3.03;0.30;;;;;;;26.43;38.73;101055.97;5095898;28;20028;-71
2022/07/03 10:23:12;;;;;;;6.13;0.50;;;;;;;26.33;39.63;101048.13;5083179;28;20058;-71
2022/07/03 10:25:41;;;;;;;7.72;0.80;;;;;;;26.30;38.61;101063.16;5061964;28;20472;-71
2022/07/03 10:28:07;;;;;;;4.35;0.50;;;;;;;26.37;37.99;101051.84;5047026;28;20567;-71
2022/07/03 10:30:32;;;;;;;4.00;0.80;;;;;;;26.42;38.57;101048.63;5099536;28;20036;-71
2022/07/03 10:32:58;;;;;;;2.30;0.47;;;;;;;26.49;38.57;101057.28;5081477;28;20042;-71
2022/07/03 10:35:33;;;;;;;8.68;3.10;;;;;;;26.50;38.54;101056.09;5098550;28;20025;-71
2022/07/03 10:38:02;;;;;;;10.70;2.85;;;;;;;26.62;38.54;101051.31;5098292;28;20036;-71
2022/07/03 10:46:17;;;;;;;4.32;1.10;;;;;;;26.57;38.24;101072.44;5098248;28;20107;-70
2022/07/03 10:49:05;;;;;;;6.20;1.27;;;;;;;26.24;38.32;101059.00;5091765;28;20024;-71
2022/07/03 10:51:50;;;;;;;3.65;0.70;;;;;;;26.25;38.60;101060.66;5080200;28;20071;-70
2022/07/03 10:54:26;;;;;;;5.53;0.80;;;;;;;25.95;38.32;101067.19;5080022;28;20562;-70
2022/07/03 10:57:00;;;;;;;3.63;0.75;;;;;;;25.80;38.59;101065.31;5094931;28;20043;-70
2022/07/03 10:59:31;;;;;;;5.97;2.85;;;;;;;25.78;38.94;101057.16;5097657;28;20392;-70
2022/07/03 11:02:31;;;;;;;4.97;1.40;;;;;;;25.98;38.64;101054.19;5099022;28;20058;-70
2022/07/03 11:04:59;;;;;;;9.10;4.68;;;;;;;26.01;38.47;101062.78;5098809;28;20032;-71
2022/07/03 11:07:31;;;;;;;7.07;3.90;;;;;;;25.95;38.10;101061.47;5098925;28;20468;-71
2022/07/03 11:10:06;;;;;;;14.63;8.88;;;;;;;25.85;38.84;101070.69;5098862;28;20038;-70
2022/07/03 11:12:56;;;;;;;10.48;6.18;;;;;;;25.64;38.87;101083.38;5097829;28;20496;-71
2022/07/03 11:15:49;;;;;;;6.28;3.47;;;;;;;25.51;39.32;101073.41;5093635;28;20115;-72
2022/07/03 11:18:27;;;;;;;5.55;2.17;;;;;;;25.50;38.68;101066.09;5092997;28;20039;-71
2022/07/03 11:20:53;;;;;;;3.58;1.10;;;;;;;25.67;39.11;101066.75;5085952;28;20033;-71
2022/07/03 11:23:35;;;;;;;3.80;1.13;;;;;;;25.83;38.39;101058.91;5097829;28;20034;-71
2022/07/03 11:26:07;;;;;;;3.03;1.17;;;;;;;26.12;38.00;101062.09;5107138;28;20491;-71
2022/07/03 11:28:33;;;;;;;3.97;2.28;;;;;;;26.40;38.00;101062.44;5063624;28;20093;-71
2022/07/03 11:31:07;;;;;;;3.35;1.15;;;;;;;26.65;37.43;101057.06;5097127;28;20035;-71
2022/07/03 11:33:42;;;;;;;3.05;1.42;;;;;;;26.94;36.65;101063.03;5098110;28;20043;-71
2022/07/03 11:36:16;;;;;;;2.50;0.98;;;;;;;27.19;36.67;101066.13;5093045;28;20044;-71
2022/07/03 11:38:48;;;;;;;2.92;0.73;;;;;;;27.32;36.28;101069.50;5098371;28;20066;-71
2022/07/03 11:41:15;;;;;;;1.73;0.65;;;;;;;27.29;35.94;101068.25;5097147;28;20085;-71